Time;durP1;ratioP1;P1;durP2;ratioP2;P2;SDS_P1;SDS_P2;PMS_P1;PMS_P2;Temp;Humidity;BMP_temperature;BMP_pressure;BME280_temperature;BME280_humidity;BME280_pressure;Samples;Min_cycle;Max_cycle;Signal;HPM_P1;HPM_P2
2022/01/05 00:00:12;;;;;;;8.03;1.90;;;5.70;99.90;;;;;;6211141;23;20173;-83
2022/01/05 00:02:39;;;;;;;8.83;3.80;;;5.70;99.90;;;;;;6210949;23;20174;-83
2022/01/05 00:05:08;;;;;;;10.03;2.60;;;5.70;99.90;;;;;;6210383;23;20205;-83
2022/01/05 00:07:35;;;;;;;11.90;2.93;;;5.70;99.90;;;;;;6209133;23;20165;-82
2022/01/05 00:10:03;;;;;;;8.80;2.87;;;5.70;99.90;;;;;;6210790;23;20166;-84
2022/01/05 00:12:30;;;;;;;9.40;2.77;;;5.70;99.90;;;;;;6209864;23;20170;-83
2022/01/05 00:14:56;;;;;;;11.67;3.17;;;5.70;99.90;;;;;;6210946;23;20178;-80
2022/01/05 00:17:23;;;;;;;14.03;3.27;;;5.70;99.90;;;;;;6209324;23;20185;-83
2022/01/05 00:19:50;;;;;;;14.07;2.40;;;5.70;99.90;;;;;;6210935;23;20181;-81
2022/01/05 00:22:18;;;;;;;15.93;3.00;;;5.70;99.90;;;;;;6210691;23;20177;-82
2022/01/05 00:24:46;;;;;;;11.20;2.40;;;5.70;99.90;;;;;;6209654;23;20208;-83
2022/01/05 00:27:13;;;;;;;12.47;2.87;;;5.70;99.90;;;;;;6210377;23;20174;-83
2022/01/05 00:29:40;;;;;;;13.20;3.00;;;5.70;99.90;;;;;;6208854;23;20166;-83
2022/01/05 00:32:08;;;;;;;14.73;2.57;;;5.70;99.90;;;;;;6208587;23;20865;-83
2022/01/05 00:34:35;;;;;;;10.37;2.83;;;5.70;99.90;;;;;;6209417;23;20738;-82
2022/01/05 00:37:02;;;;;;;12.90;2.53;;;5.70;99.90;;;;;;6211281;23;20787;-82
2022/01/05 00:39:30;;;;;;;12.07;2.73;;;5.70;99.90;;;;;;6209957;23;20173;-82
2022/01/05 00:41:57;;;;;;;8.23;2.20;;;5.70;99.90;;;;;;6210118;23;20230;-83
2022/01/05 00:44:24;;;;;;;14.67;3.23;;;5.70;99.90;;;;;;6208495;23;20189;-82
2022/01/05 00:46:51;;;;;;;16.10;3.13;;;5.70;99.90;;;;;;6205993;23;20198;-82
2022/01/05 00:49:18;;;;;;;12.07;3.27;;;5.70;99.90;;;;;;6210412;23;20883;-81
2022/01/05 00:51:45;;;;;;;16.67;3.00;;;5.80;99.90;;;;;;6209605;23;20174;-86
2022/01/05 00:54:12;;;;;;;15.57;3.07;;;5.80;99.90;;;;;;6210248;23;20180;-82
2022/01/05 00:56:40;;;;;;;12.90;3.47;;;5.70;99.90;;;;;;6209350;23;20228;-82
2022/01/05 00:59:07;;;;;;;17.37;4.47;;;5.80;99.90;;;;;;6209466;23;20181;-83
2022/01/05 01:01:34;;;;;;;15.17;3.20;;;5.80;99.90;;;;;;6209282;23;20250;-82
2022/01/05 01:04:01;;;;;;;20.07;3.63;;;5.70;99.90;;;;;;6209166;23;20598;-82
2022/01/05 01:06:28;;;;;;;13.53;3.57;;;5.70;99.90;;;;;;6208650;23;20209;-83
2022/01/05 01:08:55;;;;;;;13.60;3.53;;;5.80;99.90;;;;;;6210379;23;20193;-81
2022/01/05 01:11:22;;;;;;;12.73;3.40;;;5.70;99.90;;;;;;6211635;23;20171;-82
2022/01/05 01:13:50;;;;;;;13.37;3.23;;;5.80;99.90;;;;;;6211695;23;20177;-82
2022/01/05 01:16:19;;;;;;;13.37;2.70;;;5.80;99.90;;;;;;6211980;23;20703;-82
2022/01/05 01:18:46;;;;;;;14.93;3.27;;;5.90;99.90;;;;;;6211523;23;20424;-83
2022/01/05 01:21:13;;;;;;;16.17;3.07;;;5.90;99.90;;;;;;6210148;23;20177;-84
2022/01/05 01:23:42;;;;;;;17.77;4.17;;;5.90;99.90;;;;;;6210276;23;20449;-81
2022/01/05 01:26:09;;;;;;;14.13;3.27;;;5.90;99.90;;;;;;6210638;23;20200;-81
2022/01/05 01:28:36;;;;;;;20.70;3.20;;;5.90;99.90;;;;;;6210335;23;20185;-81
2022/01/05 01:31:05;;;;;;;16.73;3.57;;;5.90;99.90;;;;;;6210270;23;20181;-82
2022/01/05 01:33:32;;;;;;;23.17;5.10;;;5.90;99.90;;;;;;6210564;23;20170;-82
2022/01/05 01:35:59;;;;;;;12.30;3.50;;;5.90;99.90;;;;;;6211403;23;20241;-82
2022/01/05 01:38:26;;;;;;;11.00;3.80;;;6.00;99.90;;;;;;6210951;23;20233;-83
2022/01/05 01:40:52;;;;;;;10.70;3.03;;;5.90;99.90;;;;;;6210033;23;20182;-81
2022/01/05 01:43:19;;;;;;;16.67;3.20;;;5.90;99.90;;;;;;6211075;23;21048;-82
2022/01/05 01:45:46;;;;;;;9.40;2.13;;;5.90;99.90;;;;;;6210546;23;20194;-84
2022/01/05 01:48:14;;;;;;;15.47;3.67;;;5.90;99.90;;;;;;6209881;23;20177;-85
2022/01/05 01:50:41;;;;;;;21.73;3.70;;;5.90;99.90;;;;;;6211175;23;20481;-82
2022/01/05 01:53:08;;;;;;;14.03;3.23;;;5.90;99.90;;;;;;6210665;23;20166;-83
2022/01/05 01:55:35;;;;;;;13.30;2.73;;;5.90;99.90;;;;;;6209897;23;20198;-82
2022/01/05 01:58:02;;;;;;;11.23;3.13;;;5.90;99.90;;;;;;6209200;23;20181;-82
2022/01/05 02:00:30;;;;;;;8.03;2.37;;;5.90;99.90;;;;;;6211212;23;20174;-82
2022/01/05 02:02:57;;;;;;;11.47;2.70;;;5.90;99.90;;;;;;6209446;23;20252;-82
2022/01/05 02:05:25;;;;;;;16.20;3.00;;;5.90;99.90;;;;;;6210045;23;20181;-84
2022/01/05 02:07:52;;;;;;;13.30;3.00;;;5.90;99.90;;;;;;6211402;23;20174;-82
2022/01/05 02:10:19;;;;;;;15.97;3.47;;;5.90;99.90;;;;;;6209833;23;20229;-81
2022/01/05 02:12:47;;;;;;;11.60;3.47;;;5.90;99.90;;;;;;6211287;23;20178;-83
2022/01/05 02:15:14;;;;;;;9.93;3.13;;;5.90;99.90;;;;;;6211085;23;20750;-82
2022/01/05 02:17:52;;;;;;;14.30;3.73;;;5.90;99.90;;;;;;6207992;23;20174;-83
2022/01/05 02:20:25;;;;;;;13.20;2.70;;;5.90;99.90;;;;;;6209149;23;20188;-82
2022/01/05 02:22:55;;;;;;;10.83;2.87;;;5.90;99.90;;;;;;6211492;23;20166;-84
2022/01/05 02:25:22;;;;;;;9.47;2.80;;;5.90;99.90;;;;;;6210328;23;20224;-82
2022/01/05 02:27:52;;;;;;;15.17;3.63;;;5.90;99.90;;;;;;6210771;23;20198;-84
2022/01/05 02:30:21;;;;;;;18.07;3.43;;;6.00;99.90;;;;;;6210711;23;20213;-83
2022/01/05 02:32:48;;;;;;;14.77;3.83;;;6.00;99.90;;;;;;6210926;23;20699;-84
2022/01/05 02:35:15;;;;;;;13.30;2.77;;;6.10;99.90;;;;;;6208524;23;20229;-83
2022/01/05 02:37:43;;;;;;;22.43;4.23;;;6.10;99.90;;;;;;6209649;23;20177;-84
2022/01/05 02:40:14;;;;;;;13.10;2.13;;;6.10;99.90;;;;;;6210536;23;20175;-84
2022/01/05 02:42:41;;;;;;;10.50;2.63;;;6.10;99.90;;;;;;6209454;23;20526;-84
2022/01/05 02:45:09;;;;;;;12.23;2.80;;;6.10;99.90;;;;;;6209784;23;20746;-83
2022/01/05 02:47:37;;;;;;;15.20;3.33;;;6.20;99.90;;;;;;6209738;23;20202;-83
2022/01/05 02:50:05;;;;;;;12.63;3.33;;;6.20;99.90;;;;;;6209446;23;20170;-82
2022/01/05 02:52:32;;;;;;;16.30;3.30;;;6.20;99.90;;;;;;6209131;23;20178;-82
2022/01/05 02:54:59;;;;;;;10.73;2.93;;;6.20;99.90;;;;;;6210279;23;20181;-82
2022/01/05 02:57:27;;;;;;;19.23;3.17;;;6.20;99.90;;;;;;6209256;23;20167;-82
2022/01/05 02:59:55;;;;;;;13.37;3.40;;;6.20;99.90;;;;;;6183481;23;20224;-82
2022/01/05 03:02:22;;;;;;;9.67;3.20;;;6.20;99.90;;;;;;6210616;23;20442;-82
2022/01/05 03:04:50;;;;;;;15.47;3.33;;;6.20;99.90;;;;;;6210186;23;20183;-87
2022/01/05 03:07:17;;;;;;;16.67;3.77;;;6.20;99.90;;;;;;6209694;23;20197;-84
2022/01/05 03:09:44;;;;;;;14.37;3.10;;;6.20;99.90;;;;;;6210193;23;20436;-81
2022/01/05 03:12:13;;;;;;;13.17;3.87;;;6.20;99.90;;;;;;6209770;23;20162;-84
2022/01/05 03:14:42;;;;;;;15.37;3.53;;;6.20;99.90;;;;;;6208788;23;20480;-81
2022/01/05 03:17:08;;;;;;;16.47;4.07;;;6.20;99.90;;;;;;6209784;23;20790;-82
2022/01/05 03:19:35;;;;;;;15.57;4.57;;;6.20;99.90;;;;;;6209670;23;20174;-83
2022/01/05 03:22:02;;;;;;;19.23;4.13;;;6.30;99.90;;;;;;6209543;23;20485;-82
2022/01/05 03:24:29;;;;;;;22.20;6.57;;;6.30;99.90;;;;;;6208457;23;20178;-82
2022/01/05 03:26:56;;;;;;;20.73;3.47;;;6.30;99.90;;;;;;6210131;23;20886;-83
2022/01/05 03:29:23;;;;;;;15.90;3.30;;;6.40;99.90;;;;;;6209751;23;20248;-83
2022/01/05 03:31:52;;;;;;;15.17;3.03;;;6.30;99.90;;;;;;6209123;23;20575;-82
2022/01/05 03:34:20;;;;;;;13.80;3.13;;;6.40;99.90;;;;;;6209187;23;20185;-83
2022/01/05 03:36:47;;;;;;;9.47;2.90;;;6.30;99.90;;;;;;6210641;23;20236;-82
2022/01/05 03:39:14;;;;;;;11.30;2.80;;;6.40;99.90;;;;;;6209484;23;20170;-83
2022/01/05 03:41:42;;;;;;;15.67;3.63;;;6.40;99.90;;;;;;6210046;23;20197;-82
2022/01/05 03:44:09;;;;;;;11.83;3.03;;;6.30;99.90;;;;;;6210655;23;20186;-84
2022/01/05 03:46:36;;;;;;;17.57;3.70;;;6.20;99.90;;;;;;6210612;23;20201;-83
2022/01/05 03:49:04;;;;;;;12.77;3.03;;;6.20;99.90;;;;;;6209349;23;20178;-82
2022/01/05 03:51:31;;;;;;;13.47;3.40;;;6.20;99.90;;;;;;6207543;23;20185;-83
2022/01/05 03:53:58;;;;;;;15.77;4.33;;;6.20;99.90;;;;;;6208049;23;20201;-83
2022/01/05 03:56:25;;;;;;;15.67;3.50;;;6.20;99.90;;;;;;6209692;23;20198;-83
2022/01/05 03:58:52;;;;;;;18.40;3.33;;;6.20;99.90;;;;;;6209354;23;20205;-83
2022/01/05 04:01:19;;;;;;;18.80;4.47;;;6.30;99.90;;;;;;6210106;23;20178;-80
2022/01/05 04:03:46;;;;;;;16.63;3.57;;;6.40;99.90;;;;;;6208498;23;20208;-84
2022/01/05 04:06:14;;;;;;;16.23;4.50;;;6.40;99.90;;;;;;6210348;23;20173;-80
2022/01/05 04:08:41;;;;;;;20.03;3.90;;;6.40;99.90;;;;;;6210004;23;20170;-84
2022/01/05 04:11:08;;;;;;;19.40;4.87;;;6.40;99.90;;;;;;6209614;23;20166;-83
2022/01/05 04:13:35;;;;;;;14.20;3.53;;;6.50;99.90;;;;;;6209193;23;20173;-81
2022/01/05 04:16:02;;;;;;;16.30;3.10;;;6.50;99.90;;;;;;6207542;23;20197;-81
2022/01/05 04:18:28;;;;;;;10.43;2.90;;;6.50;99.90;;;;;;6209559;23;20174;-82
2022/01/05 04:20:55;;;;;;;18.87;4.13;;;6.50;99.90;;;;;;6210244;23;20176;-84
2022/01/05 04:23:24;;;;;;;12.97;3.57;;;6.60;99.90;;;;;;6209373;23;20497;-84
2022/01/05 04:25:51;;;;;;;18.47;2.90;;;6.60;99.90;;;;;;6209577;23;20177;-84
2022/01/05 04:28:17;;;;;;;13.30;3.33;;;6.60;99.90;;;;;;6209879;23;20197;-82
2022/01/05 04:30:44;;;;;;;22.37;4.37;;;6.60;99.90;;;;;;6209872;23;20186;-82
2022/01/05 04:33:11;;;;;;;16.33;3.63;;;6.60;99.90;;;;;;6210154;23;20174;-84
2022/01/05 04:35:38;;;;;;;9.27;3.13;;;6.60;99.90;;;;;;6209011;23;20166;-83
2022/01/05 04:38:05;;;;;;;12.13;3.23;;;6.60;99.90;;;;;;6209046;23;20181;-84
2022/01/05 04:40:33;;;;;;;15.03;3.20;;;6.60;99.90;;;;;;6208773;23;20166;-81
2022/01/05 04:43:00;;;;;;;12.97;3.73;;;6.70;99.90;;;;;;6208966;23;20201;-83
2022/01/05 04:45:27;;;;;;;10.90;3.07;;;6.60;99.90;;;;;;6209881;23;20177;-82
2022/01/05 04:47:53;;;;;;;11.67;3.33;;;6.70;99.90;;;;;;6211103;23;20193;-83
2022/01/05 04:50:20;;;;;;;17.10;3.23;;;6.70;99.90;;;;;;6210512;23;20185;-80
2022/01/05 04:52:47;;;;;;;15.07;3.90;;;6.70;99.90;;;;;;6209704;23;20170;-81
2022/01/05 04:55:14;;;;;;;16.73;3.80;;;6.70;99.90;;;;;;6210237;23;20198;-84
2022/01/05 04:57:42;;;;;;;14.73;3.43;;;6.70;99.90;;;;;;6212885;23;20185;-81
2022/01/05 05:00:10;;;;;;;15.43;3.33;;;6.70;99.90;;;;;;6211350;23;20166;-83
2022/01/05 05:02:37;;;;;;;16.57;3.30;;;6.70;99.90;;;;;;6210716;23;20174;-85
2022/01/05 05:05:04;;;;;;;14.63;3.53;;;6.70;99.90;;;;;;6210698;23;20567;-83
2022/01/05 05:07:31;;;;;;;15.63;2.83;;;6.70;99.90;;;;;;6211218;23;20201;-86
2022/01/05 05:09:57;;;;;;;15.90;2.80;;;6.70;99.90;;;;;;6212343;23;20198;-84
2022/01/05 05:12:24;;;;;;;16.50;3.27;;;6.70;99.90;;;;;;6211191;23;20170;-82
2022/01/05 05:14:54;;;;;;;16.90;3.50;;;6.80;99.90;;;;;;6211634;23;20166;-86
2022/01/05 05:17:21;;;;;;;18.17;4.00;;;6.80;99.90;;;;;;6212040;23;20181;-82
2022/01/05 05:19:48;;;;;;;13.60;2.87;;;6.80;99.90;;;;;;6210431;23;20193;-82
2022/01/05 05:22:14;;;;;;;11.07;3.43;;;6.80;99.90;;;;;;6210188;23;20178;-83
2022/01/05 05:24:41;;;;;;;17.73;2.87;;;6.80;99.90;;;;;;6208970;23;20188;-79
2022/01/05 05:27:08;;;;;;;15.60;3.50;;;6.80;99.90;;;;;;6210789;23;20213;-81
2022/01/05 05:29:35;;;;;;;16.53;3.50;;;6.90;99.90;;;;;;6211171;23;20166;-83
2022/01/05 05:32:05;;;;;;;15.03;2.80;;;6.90;99.90;;;;;;6211372;23;20170;-83
2022/01/05 05:34:31;;;;;;;16.83;3.53;;;6.90;99.90;;;;;;6210138;23;20212;-81
2022/01/05 05:36:58;;;;;;;15.60;4.60;;;6.90;99.90;;;;;;6212223;23;20170;-81
2022/01/05 05:39:25;;;;;;;22.07;4.57;;;6.90;99.90;;;;;;6210191;23;20177;-80
2022/01/05 05:41:52;;;;;;;14.67;3.50;;;6.90;99.90;;;;;;6211208;23;20194;-84
2022/01/05 05:44:19;;;;;;;17.80;4.13;;;6.90;99.90;;;;;;6212024;23;20177;-82
2022/01/05 05:46:46;;;;;;;17.60;3.67;;;6.80;99.90;;;;;;6212178;23;20194;-84
2022/01/05 05:49:14;;;;;;;17.50;4.10;;;6.80;99.90;;;;;;6212107;23;20814;-84
2022/01/05 05:51:41;;;;;;;14.63;3.40;;;6.70;99.90;;;;;;6211964;23;20178;-82
2022/01/05 05:54:07;;;;;;;21.30;4.67;;;6.70;99.90;;;;;;6211408;23;20249;-86
2022/01/05 05:56:34;;;;;;;16.80;5.30;;;6.70;99.90;;;;;;6210609;23;20507;-85
2022/01/05 05:59:01;;;;;;;18.00;4.20;;;6.70;99.90;;;;;;6211180;23;20593;-84
2022/01/05 06:01:29;;;;;;;20.43;5.13;;;6.70;99.90;;;;;;6211190;23;20177;-82
2022/01/05 06:03:56;;;;;;;25.17;6.10;;;6.70;99.90;;;;;;6211436;23;20237;-81
2022/01/05 06:06:24;;;;;;;20.83;5.40;;;6.70;99.90;;;;;;6211018;23;20162;-84
2022/01/05 06:08:51;;;;;;;25.10;4.73;;;6.70;99.90;;;;;;6211055;23;20904;-83
2022/01/05 06:11:17;;;;;;;25.67;4.97;;;6.80;99.90;;;;;;6211850;23;20441;-84
2022/01/05 06:13:44;;;;;;;16.27;3.57;;;6.90;99.90;;;;;;6210853;23;20575;-82
2022/01/05 06:16:11;;;;;;;19.47;4.87;;;6.90;99.90;;;;;;6211557;23;20189;-82
2022/01/05 06:18:38;;;;;;;23.13;4.77;;;7.00;99.90;;;;;;6208929;23;20177;-83
2022/01/05 06:21:05;;;;;;;14.77;4.27;;;7.00;99.90;;;;;;6209807;23;20193;-83
2022/01/05 06:23:33;;;;;;;21.67;3.97;;;7.00;99.90;;;;;;6209378;23;20181;-86
2022/01/05 06:26:00;;;;;;;20.57;4.90;;;7.00;99.90;;;;;;6208256;23;20166;-82
2022/01/05 06:28:27;;;;;;;19.83;5.10;;;7.10;99.90;;;;;;6208382;23;20194;-82
2022/01/05 06:30:54;;;;;;;21.33;4.87;;;7.10;99.90;;;;;;6207281;23;20174;-87
2022/01/05 06:33:21;;;;;;;35.07;6.23;;;7.10;99.90;;;;;;6209916;23;20174;-85
2022/01/05 06:35:48;;;;;;;21.93;4.97;;;7.10;99.90;;;;;;6210077;23;20173;-87
2022/01/05 06:38:15;;;;;;;25.00;4.33;;;7.20;99.90;;;;;;6209942;23;20170;-84
2022/01/05 06:40:43;;;;;;;19.40;3.97;;;7.20;99.90;;;;;;6210384;23;20174;-87
2022/01/05 06:43:10;;;;;;;18.93;3.37;;;7.20;99.90;;;;;;6210148;23;20205;-83
2022/01/05 06:45:37;;;;;;;20.20;4.50;;;7.20;99.90;;;;;;6207057;23;20173;-83
2022/01/05 06:48:04;;;;;;;23.90;6.13;;;7.10;99.90;;;;;;6207933;23;20200;-84
2022/01/05 06:50:31;;;;;;;22.60;4.50;;;7.10;99.90;;;;;;6206634;23;20547;-90
2022/01/05 06:52:57;;;;;;;21.23;3.97;;;7.10;99.90;;;;;;6208052;23;20440;-86
2022/01/05 06:55:25;;;;;;;19.73;4.53;;;7.00;99.90;;;;;;6211176;23;20201;-88
2022/01/05 06:57:53;;;;;;;24.30;5.20;;;7.00;99.90;;;;;;6212564;23;20162;-91
2022/01/05 07:00:22;;;;;;;20.43;4.00;;;6.90;99.90;;;;;;6213461;23;20241;-89
2022/01/05 07:02:52;;;;;;;28.03;4.23;;;6.80;99.90;;;;;;6213214;23;20236;-89
2022/01/05 07:05:19;;;;;;;20.47;4.13;;;6.70;99.90;;;;;;6212968;23;20174;-92
2022/01/05 07:07:46;;;;;;;12.50;3.47;;;6.60;99.90;;;;;;6212545;23;20228;-89
2022/01/05 07:10:13;;;;;;;18.80;4.27;;;6.60;99.90;;;;;;6213370;23;20420;-92
2022/01/05 07:12:41;;;;;;;19.57;3.87;;;6.50;99.90;;;;;;6212508;23;20170;-90
2022/01/05 07:15:11;;;;;;;18.83;3.40;;;6.60;99.90;;;;;;6212981;23;20174;-88
2022/01/05 07:17:38;;;;;;;22.00;3.70;;;6.50;99.90;;;;;;6212641;23;20169;-86
2022/01/05 07:20:06;;;;;;;22.63;3.93;;;6.50;99.90;;;;;;6212509;23;20173;-87
2022/01/05 07:22:33;;;;;;;23.97;4.87;;;6.50;99.90;;;;;;6213144;23;20170;-87
2022/01/05 07:25:00;;;;;;;21.20;3.47;;;6.50;99.90;;;;;;6213105;23;20233;-88
2022/01/05 07:27:27;;;;;;;20.07;4.47;;;6.60;99.90;;;;;;6211924;23;20190;-89
2022/01/05 07:29:54;;;;;;;31.80;6.30;;;6.60;99.90;;;;;;6213338;23;20554;-87
2022/01/05 07:32:22;;;;;;;22.33;4.77;;;6.70;99.90;;;;;;6212429;23;20178;-88
2022/01/05 07:34:49;;;;;;;31.57;6.40;;;6.70;99.90;;;;;;6213221;23;20169;-89
2022/01/05 07:37:16;;;;;;;20.73;4.80;;;6.80;99.90;;;;;;6213732;23;20249;-88
2022/01/05 07:39:43;;;;;;;22.43;5.37;;;6.80;99.90;;;;;;6212891;23;20429;-88
2022/01/05 07:42:10;;;;;;;27.17;5.87;;;6.90;99.90;;;;;;6212325;23;20194;-92
2022/01/05 07:44:37;;;;;;;25.63;5.30;;;6.90;99.90;;;;;;6212988;23;20194;-91
2022/01/05 07:47:04;;;;;;;26.20;5.63;;;6.90;99.90;;;;;;6210759;23;20174;-92
2022/01/05 07:49:33;;;;;;;23.40;5.03;;;6.90;99.90;;;;;;6214411;23;20181;-85
2022/01/05 07:51:59;;;;;;;29.60;7.90;;;7.00;99.90;;;;;;6213848;23;20170;-89
2022/01/05 07:54:26;;;;;;;31.40;4.97;;;7.00;99.90;;;;;;6212181;23;20563;-87
2022/01/05 07:56:53;;;;;;;33.90;6.33;;;7.10;99.90;;;;;;6212659;23;20206;-88
2022/01/05 07:59:20;;;;;;;33.53;4.77;;;7.10;99.90;;;;;;6212498;23;20185;-89
2022/01/05 08:01:47;;;;;;;20.67;5.27;;;7.10;99.90;;;;;;6212367;23;20180;-88
2022/01/05 08:04:15;;;;;;;25.13;5.63;;;7.10;99.90;;;;;;6212072;23;20174;-89
2022/01/05 08:06:44;;;;;;;31.47;6.53;;;7.20;99.90;;;;;;6212559;23;20229;-89
2022/01/05 08:09:11;;;;;;;25.70;5.37;;;7.10;99.90;;;;;;6212830;23;20204;-90
2022/01/05 08:11:38;;;;;;;28.30;5.43;;;7.10;99.90;;;;;;6212899;23;20173;-91
2022/01/05 08:14:05;;;;;;;28.53;6.23;;;7.10;99.90;;;;;;6212912;23;20166;-89
2022/01/05 08:16:32;;;;;;;31.57;5.73;;;7.10;99.90;;;;;;6212545;23;20176;-93
2022/01/05 08:18:59;;;;;;;31.37;5.37;;;7.10;99.90;;;;;;6213700;23;20232;-88
2022/01/05 08:21:26;;;;;;;40.43;6.63;;;7.10;99.90;;;;;;6215239;23;20170;-90
2022/01/05 08:23:54;;;;;;;33.93;8.77;;;7.10;99.90;;;;;;6214979;23;20174;-91
2022/01/05 08:30:05;;;;;;;28.40;4.27;;;7.10;99.90;;;;;;6102655;23;20197;-87
2022/01/05 08:32:32;;;;;;;30.83;5.87;;;7.00;99.90;;;;;;6215864;23;20169;-88
2022/01/05 08:35:00;;;;;;;34.30;7.33;;;7.00;99.90;;;;;;6212973;23;20221;-83
2022/01/05 08:37:27;;;;;;;29.33;6.80;;;7.00;99.90;;;;;;6213069;23;20170;-90
2022/01/05 08:39:55;;;;;;;25.13;7.00;;;7.20;99.90;;;;;;6213712;23;20170;-88
2022/01/05 08:42:22;;;;;;;20.77;5.00;;;7.20;99.90;;;;;;6214613;23;20202;-91
2022/01/05 08:45:24;;;;;;;27.47;6.23;;;7.20;99.90;;;;;;6212910;23;20822;-92
2022/01/05 08:47:53;;;;;;;28.83;5.50;;;7.30;99.90;;;;;;6214984;23;20554;-90
2022/01/05 08:50:21;;;;;;;41.60;6.97;;;7.30;99.90;;;;;;6214853;23;20170;-87
2022/01/05 08:52:49;;;;;;;30.17;5.57;;;7.40;99.90;;;;;;6214288;23;20181;-88
2022/01/05 08:55:20;;;;;;;23.57;4.67;;;7.40;99.90;;;;;;6213686;23;20194;-86
2022/01/05 08:57:47;;;;;;;24.97;5.30;;;7.40;99.90;;;;;;6214145;23;20418;-87
2022/01/05 09:00:15;;;;;;;29.37;6.27;;;7.40;99.90;;;;;;6214632;23;20178;-90
2022/01/05 09:02:43;;;;;;;23.23;5.50;;;7.50;99.90;;;;;;6214038;23;20178;-91
2022/01/05 09:05:11;;;;;;;30.20;5.63;;;7.50;99.90;;;;;;6212929;23;20560;-87
2022/01/05 09:07:38;;;;;;;23.33;5.57;;;7.50;99.90;;;;;;6213343;23;20174;-88
2022/01/05 09:10:06;;;;;;;25.20;4.90;;;7.50;99.90;;;;;;6214728;23;20173;-85
2022/01/05 09:12:34;;;;;;;26.43;5.23;;;7.60;99.90;;;;;;6213417;23;20606;-86
2022/01/05 09:15:01;;;;;;;31.03;5.73;;;7.60;99.90;;;;;;6212183;23;20178;-88
2022/01/05 09:17:28;;;;;;;24.27;5.10;;;7.50;99.90;;;;;;6214851;23;20269;-89
2022/01/05 09:19:55;;;;;;;27.30;5.70;;;7.50;99.90;;;;;;6214638;23;20170;-88
2022/01/05 09:22:23;;;;;;;28.23;5.60;;;7.50;99.90;;;;;;6213413;23;20185;-88
2022/01/05 09:24:50;;;;;;;30.43;5.77;;;7.50;99.90;;;;;;6213331;23;20167;-87
2022/01/05 09:27:20;;;;;;;31.57;6.17;;;7.50;99.90;;;;;;6211237;23;20425;-87
2022/01/05 09:29:48;;;;;;;26.10;6.03;;;7.50;99.90;;;;;;6212532;23;20198;-86
2022/01/05 09:32:16;;;;;;;20.37;5.20;;;7.60;99.90;;;;;;6212558;23;20170;-89
2022/01/05 09:34:44;;;;;;;40.87;6.37;;;7.60;99.90;;;;;;6213114;23;20560;-87
2022/01/05 09:37:19;;;;;;;23.27;4.90;;;7.70;99.90;;;;;;6213275;23;20174;-87
2022/01/05 09:42:30;;;;;;;34.97;8.07;;;7.70;99.90;;;;;;6213137;23;20229;-86
2022/01/05 09:44:59;;;;;;;24.77;5.23;;;7.80;99.90;;;;;;6213574;23;20174;-85
2022/01/05 09:47:48;;;;;;;23.93;7.17;;;7.80;99.90;;;;;;6212031;23;20176;-85
2022/01/05 09:50:16;;;;;;;29.20;5.73;;;7.80;99.90;;;;;;6213009;23;20197;-84
2022/01/05 09:52:45;;;;;;;30.57;6.30;;;7.80;99.90;;;;;;6212774;23;20830;-85
2022/01/05 09:55:14;;;;;;;33.77;5.93;;;7.70;99.90;;;;;;6210954;23;20181;-86
2022/01/05 09:57:43;;;;;;;35.10;5.90;;;7.70;99.90;;;;;;6211329;23;20170;-86
2022/01/05 10:00:13;;;;;;;32.53;6.93;;;7.60;99.90;;;;;;6210015;23;20177;-86
2022/01/05 10:02:40;;;;;;;31.33;6.87;;;7.70;99.90;;;;;;6210194;23;20760;-82
2022/01/05 10:05:09;;;;;;;30.77;6.03;;;7.60;99.90;;;;;;6209070;23;20181;-84
2022/01/05 10:07:37;;;;;;;40.73;8.10;;;7.60;99.90;;;;;;6211367;23;20193;-83
2022/01/05 10:10:05;;;;;;;30.60;7.70;;;7.60;99.90;;;;;;6211759;23;20726;-86
2022/01/05 10:12:32;;;;;;;32.77;6.93;;;7.60;99.90;;;;;;6212281;23;20170;-83
2022/01/05 10:14:59;;;;;;;31.93;6.80;;;7.60;99.90;;;;;;6211831;23;20166;-84
2022/01/05 10:17:30;;;;;;;37.57;8.87;;;7.60;99.90;;;;;;6211619;23;20430;-85
2022/01/05 10:19:58;;;;;;;29.13;5.90;;;7.70;99.90;;;;;;6211786;23;20225;-83
2022/01/05 10:22:33;;;;;;;33.73;6.47;;;7.70;99.90;;;;;;6211216;23;20174;-86
2022/01/05 10:25:00;;;;;;;37.00;6.83;;;7.70;99.90;;;;;;6211157;23;20438;-83
2022/01/05 10:27:29;;;;;;;31.70;6.70;;;7.80;99.90;;;;;;6211294;23;20178;-85
2022/01/05 10:29:58;;;;;;;34.20;7.27;;;7.80;99.90;;;;;;6211603;23;20274;-87
2022/01/05 10:32:30;;;;;;;46.27;7.13;;;7.80;99.90;;;;;;6211126;23;20209;-81
2022/01/05 10:35:02;;;;;;;31.83;6.43;;;7.80;99.90;;;;;;6212609;23;20169;-87
2022/01/05 10:37:29;;;;;;;30.13;6.13;;;7.70;99.90;;;;;;6211393;23;20177;-86
2022/01/05 10:40:19;;;;;;;36.03;7.10;;;7.70;99.90;;;;;;6211159;23;20177;-82
2022/01/05 10:42:48;;;;;;;26.47;5.67;;;7.70;99.90;;;;;;6210381;23;20189;-82
2022/01/05 10:45:17;;;;;;;40.27;7.43;;;7.70;99.90;;;;;;6211978;23;20649;-84
2022/01/05 10:48:02;;;;;;;34.80;6.73;;;7.70;99.90;;;;;;6212006;23;20167;-86
2022/01/05 10:50:29;;;;;;;33.90;7.60;;;7.70;99.90;;;;;;6209378;23;20158;-84
2022/01/05 10:52:57;;;;;;;23.63;6.37;;;7.70;99.90;;;;;;6209925;23;20203;-83
2022/01/05 10:55:26;;;;;;;38.87;7.27;;;7.80;99.90;;;;;;6209981;23;20206;-87
2022/01/05 10:57:58;;;;;;;41.17;9.67;;;7.80;99.90;;;;;;6211377;23;20197;-86
2022/01/05 11:00:34;;;;;;;33.57;6.57;;;7.90;99.90;;;;;;6211989;23;20236;-83
2022/01/05 11:03:03;;;;;;;42.90;8.17;;;7.90;99.90;;;;;;6211747;23;20173;-87
2022/01/05 11:05:30;;;;;;;33.50;6.57;;;7.90;99.90;;;;;;6211403;23;20178;-85
2022/01/05 11:08:08;;;;;;;28.13;6.33;;;7.90;99.90;;;;;;6210676;23;20174;-89
2022/01/05 11:10:35;;;;;;;17.57;5.17;;;8.00;99.90;;;;;;6209213;23;20221;-85
2022/01/05 11:13:02;;;;;;;28.93;5.73;;;8.00;99.90;;;;;;6207839;23;20170;-85
2022/01/05 11:15:31;;;;;;;34.50;6.20;;;8.10;99.90;;;;;;6207813;23;20174;-81
2022/01/05 11:18:15;;;;;;;25.53;5.43;;;8.20;99.90;;;;;;6210646;23;20174;-85
2022/01/05 11:20:44;;;;;;;35.23;8.60;;;8.20;99.90;;;;;;6211152;23;20585;-81
2022/01/05 11:23:11;;;;;;;27.10;6.00;;;8.30;99.90;;;;;;6211582;23;20174;-84
2022/01/05 11:25:41;;;;;;;24.40;5.87;;;8.30;99.90;;;;;;6210255;23;20169;-85
2022/01/05 11:28:09;;;;;;;29.97;6.23;;;8.20;99.90;;;;;;6210875;23;20178;-91
2022/01/05 11:30:36;;;;;;;27.63;5.70;;;8.20;99.90;;;;;;6206743;23;20206;-80
2022/01/05 11:33:04;;;;;;;23.83;5.87;;;8.10;99.90;;;;;;6205122;23;20182;-80
2022/01/05 11:35:33;;;;;;;25.90;5.13;;;8.20;99.90;;;;;;6207842;23;20173;-85
2022/01/05 11:38:00;;;;;;;24.47;5.27;;;8.20;99.90;;;;;;6209988;23;20228;-83
2022/01/05 11:40:29;;;;;;;22.73;4.80;;;8.20;99.90;;;;;;6209772;23;20167;-82
2022/01/05 11:43:00;;;;;;;30.33;5.30;;;8.30;99.90;;;;;;6210367;23;20664;-83
2022/01/05 11:45:34;;;;;;;19.23;4.93;;;8.20;99.90;;;;;;6209445;23;20166;-84
2022/01/05 11:48:21;;;;;;;30.20;5.60;;;8.20;99.90;;;;;;6208418;23;20204;-82
2022/01/05 11:50:50;;;;;;;20.50;4.33;;;8.20;99.90;;;;;;6210803;23;20177;-84
2022/01/05 11:53:33;;;;;;;25.67;4.77;;;8.30;99.90;;;;;;6210376;23;20166;-84
2022/01/05 11:56:10;;;;;;;22.03;5.53;;;8.30;99.90;;;;;;6209626;23;20689;-83
2022/01/05 11:58:49;;;;;;;30.30;6.93;;;8.20;99.90;;;;;;6210585;23;20162;-84
2022/01/05 12:01:28;;;;;;;34.40;5.43;;;8.10;99.90;;;;;;6210011;23;20173;-84
2022/01/05 12:04:19;;;;;;;22.37;4.20;;;8.10;99.90;;;;;;6212012;23;20177;-84
2022/01/05 12:07:35;;;;;;;27.63;5.33;;;8.10;99.90;;;;;;6212329;23;20167;-85
2022/01/05 12:10:10;;;;;;;27.77;5.40;;;8.20;99.90;;;;;;6209722;23;20512;-85
2022/01/05 12:12:38;;;;;;;32.73;5.87;;;8.30;99.90;;;;;;6210801;23;20196;-85
2022/01/05 12:15:06;;;;;;;27.80;6.67;;;8.30;99.90;;;;;;6211303;23;20186;-84
2022/01/05 12:17:34;;;;;;;25.43;5.23;;;8.40;99.90;;;;;;6211593;23;20602;-85
2022/01/05 12:20:14;;;;;;;27.10;6.03;;;8.50;99.90;;;;;;6211556;23;20256;-84
2022/01/05 12:22:43;;;;;;;33.00;6.57;;;8.60;99.90;;;;;;6210450;23;20173;-82
2022/01/05 12:25:20;;;;;;;24.23;5.03;;;8.60;99.90;;;;;;6211620;23;20614;-86
2022/01/05 12:28:03;;;;;;;30.07;6.10;;;8.60;99.90;;;;;;6211237;23;20470;-84
2022/01/05 12:30:43;;;;;;;20.73;6.37;;;8.60;99.90;;;;;;6210711;23;20217;-86
2022/01/05 12:33:15;;;;;;;21.37;5.03;;;8.60;99.90;;;;;;6212048;23;20166;-83
2022/01/05 12:36:00;;;;;;;26.97;6.67;;;8.60;99.90;;;;;;6211651;23;20166;-86
2022/01/05 12:38:47;;;;;;;22.13;5.57;;;8.60;99.90;;;;;;6209900;23;20220;-84
2022/01/05 12:41:38;;;;;;;26.93;5.43;;;8.60;99.90;;;;;;6211080;23;20170;-82
2022/01/05 12:44:33;;;;;;;24.50;4.60;;;8.60;99.90;;;;;;6209896;23;20174;-84
2022/01/05 12:47:00;;;;;;;25.43;6.27;;;8.70;99.90;;;;;;6211878;23;20185;-84
2022/01/05 12:49:31;;;;;;;25.97;5.67;;;8.70;99.90;;;;;;6209743;23;20636;-82
2022/01/05 12:52:06;;;;;;;28.73;5.60;;;8.70;99.90;;;;;;6211418;23;20249;-84
2022/01/05 12:54:45;;;;;;;25.27;5.00;;;8.60;99.90;;;;;;6211170;23;20178;-86
2022/01/05 12:57:17;;;;;;;18.00;5.07;;;8.60;99.90;;;;;;6210707;23;20202;-85
2022/01/05 12:59:49;;;;;;;21.93;5.57;;;8.60;99.90;;;;;;6210384;23;20166;-84
2022/01/05 13:02:21;;;;;;;31.27;6.73;;;8.60;99.90;;;;;;6211686;23;20170;-87